createdAt,value
2017-06-21T00:00:00.360Z,57.97
2017-06-21T00:01:28.510Z,56.23
2017-06-21T00:02:09.418Z,57.39
2017-06-21T00:04:46.004Z,56.62
2017-06-21T00:05:26.886Z,56.49
2017-06-21T00:07:08.871Z,59.06
2017-06-21T00:07:49.775Z,58.99
2017-06-21T00:08:30.669Z,58.7
2017-06-21T00:09:11.561Z,58.32
2017-06-21T00:09:52.463Z,57.93
2017-06-21T00:10:33.348Z,57.75
2017-06-21T00:11:14.246Z,57.65
2017-06-21T00:11:55.135Z,57.17
2017-06-21T00:12:36.021Z,57.84
2017-06-21T00:13:16.906Z,58.03
2017-06-21T00:13:57.824Z,58.61
2017-06-21T00:14:38.695Z,57.87
2017-06-21T00:15:19.610Z,57.58
2017-06-21T00:16:00.476Z,56.88
2017-06-21T00:16:41.371Z,56.78
2017-06-21T00:17:22.267Z,57.26
2017-06-21T00:18:03.162Z,57.26
2017-06-21T00:18:44.046Z,56.21
2017-06-21T00:19:24.933Z,57.07
2017-06-21T00:20:05.822Z,59.19
2017-06-21T00:20:46.694Z,57.93
2017-06-21T00:21:27.620Z,57.36
2017-06-21T00:22:08.496Z,56.3
2017-06-21T00:22:49.423Z,57.17
2017-06-21T00:23:30.323Z,56.3
2017-06-21T00:24:11.208Z,57.04
2017-06-21T00:24:52.096Z,58.48
2017-06-21T00:25:33.011Z,58.39
2017-06-21T00:26:13.917Z,58.42
2017-06-21T00:26:54.805Z,57.9
2017-06-21T00:27:35.727Z,59.16
2017-06-21T00:28:16.672Z,58.96
2017-06-21T00:28:57.561Z,58.03
2017-06-21T00:29:38.464Z,58.42
2017-06-21T00:30:19.348Z,57.84
2017-06-21T00:31:00.232Z,57.45
2017-06-21T00:31:41.117Z,57.43
2017-06-21T00:32:22.071Z,58.67
2017-06-21T00:33:02.939Z,59.28
2017-06-21T00:33:43.845Z,57.93
2017-06-21T00:34:24.731Z,58.13
2017-06-21T00:35:05.635Z,57.84
2017-06-21T00:35:46.516Z,58.99
2017-06-21T00:36:27.390Z,59.19
2017-06-21T00:37:08.262Z,58.48
2017-06-21T00:37:49.146Z,59.25
2017-06-21T00:38:30.051Z,59.89
2017-06-21T00:39:10.936Z,60.28
2017-06-21T00:39:51.822Z,60.11
2017-06-21T00:40:32.726Z,60.02
2017-06-21T00:41:13.613Z,59.44
2017-06-21T00:41:54.498Z,58.61
2017-06-21T00:42:35.391Z,59.19
2017-06-21T00:43:16.270Z,58.67
2017-06-21T00:43:57.165Z,59.19
2017-06-21T00:44:38.057Z,58.32
2017-06-21T00:45:18.949Z,57.84
2017-06-21T00:45:59.841Z,58.58
2017-06-21T00:46:40.732Z,59.44
2017-06-21T00:48:28.974Z,59.57
2017-06-21T00:49:09.880Z,59.25
2017-06-21T00:49:50.762Z,58.77
2017-06-21T00:50:31.669Z,60.02
2017-06-21T00:51:12.553Z,59.64
2017-06-21T00:51:53.435Z,58.8
2017-06-21T00:52:34.326Z,59.34
2017-06-21T00:53:15.228Z,59.16
2017-06-21T00:57:01.914Z,60.85
2017-06-21T00:57:42.807Z,61.05
2017-06-21T00:58:23.700Z,61.08
2017-06-21T00:59:04.593Z,61.36
2017-06-21T00:59:45.482Z,61.17
2017-06-21T01:00:26.373Z,61.24
2017-06-21T01:01:07.279Z,61.81
2017-06-21T01:01:48.156Z,62.39
2017-06-21T01:02:29.049Z,62.55
2017-06-21T01:03:09.954Z,63.35
2017-06-21T01:03:50.848Z,63.12
2017-06-21T01:04:31.729Z,63.45
2017-06-21T01:05:12.634Z,62.77
2017-06-21T01:05:53.524Z,62.29
2017-06-21T01:06:34.413Z,62.01
2017-06-21T01:07:15.305Z,61.75
2017-06-21T01:07:56.203Z,62.29
2017-06-21T01:08:37.075Z,61.75
2017-06-21T01:09:17.948Z,61.81
2017-06-21T01:09:58.838Z,61.98
2017-06-21T01:10:39.732Z,62.87
2017-06-21T01:11:20.610Z,63.35
2017-06-21T01:12:01.487Z,63.64
2017-06-21T01:12:42.376Z,63.28
2017-06-21T01:13:23.259Z,62.96
2017-06-21T01:14:04.164Z,62.68
2017-06-21T01:14:45.065Z,63.73
2017-06-21T01:15:25.956Z,63.89
2017-06-21T01:16:06.872Z,64.95
2017-06-21T01:16:47.747Z,64.31
2017-06-21T01:17:28.646Z,63.92
2017-06-21T01:18:09.549Z,63.6
2017-06-21T01:18:50.445Z,64.56
2017-06-21T01:19:31.343Z,64.47
2017-06-21T01:20:12.237Z,65.33
2017-06-21T01:20:53.116Z,65.05
2017-06-21T01:21:34.001Z,65.33
2017-06-21T01:22:14.894Z,64.85
2017-06-21T01:22:55.807Z,65.14
2017-06-21T01:23:36.669Z,64.79
2017-06-21T01:24:17.565Z,64.66
2017-06-21T01:24:58.455Z,65.23
2017-06-21T01:25:39.338Z,65.43
2017-06-21T01:26:20.210Z,65.56
2017-06-21T01:27:01.118Z,65.52
2017-06-21T01:27:42.031Z,65.72
2017-06-21T01:28:22.923Z,65.81
2017-06-21T01:29:03.836Z,66.29
2017-06-21T01:29:44.716Z,66.03
2017-06-21T01:30:25.638Z,65.94
2017-06-21T01:31:06.558Z,65.17
2017-06-21T01:32:46.210Z,63.76
2017-06-21T01:33:27.152Z,64.05
2017-06-21T01:34:08.048Z,64.05
2017-06-21T01:34:48.930Z,64.15
2017-06-21T01:35:29.868Z,63.96
2017-06-21T01:36:10.789Z,64.59
2017-06-21T01:36:51.688Z,64.69
2017-06-21T01:37:32.582Z,65.17
2017-06-21T01:38:13.502Z,66.03
2017-06-21T01:38:54.353Z,66.19
2017-06-21T01:39:35.233Z,66.67
2017-06-21T01:40:16.130Z,67.63
2017-06-21T01:40:57.002Z,67.16
2017-06-21T01:41:37.894Z,67.83
2017-06-21T01:42:18.804Z,67.73
2017-06-21T01:42:59.701Z,67.44
2017-06-21T01:43:40.564Z,66.67
2017-06-21T01:44:21.462Z,67.44
2017-06-21T01:45:02.361Z,67.19
2017-06-21T01:45:43.251Z,67.73
2017-06-21T01:46:24.145Z,68.5
2017-06-21T01:47:05.038Z,68.85
2017-06-21T01:47:45.922Z,68.98
2017-06-21T01:48:26.799Z,68.4
2017-06-21T01:49:07.680Z,68.21
2017-06-21T01:49:48.576Z,68.88
2017-06-21T01:50:29.467Z,67.38
2017-06-21T01:51:10.358Z,67.57
2017-06-21T01:51:51.265Z,67.67
2017-06-21T01:52:32.143Z,67.47
2017-06-21T01:53:13.029Z,68.69
2017-06-21T01:55:26.800Z,69.56
2017-06-21T01:56:07.757Z,69.36
2017-06-21T01:56:48.722Z,69.07
2017-06-21T01:57:29.651Z,69.07
2017-06-21T01:58:10.638Z,69.07
2017-06-21T01:58:52.485Z,69.07
2017-06-21T01:59:33.523Z,69.33
2017-06-21T02:00:14.407Z,70.32
2017-06-21T02:00:55.303Z,69.62
2017-06-21T02:01:36.347Z,69.65
2017-06-21T02:02:17.325Z,68.69
2017-06-21T02:02:58.200Z,68.21
2017-06-21T02:03:39.087Z,68.79
2017-06-21T02:07:00.502Z,70
2017-06-21T02:07:41.386Z,71.25
2017-06-21T02:08:22.297Z,71.53
2017-06-21T02:09:03.206Z,71.53
2017-06-21T02:09:44.229Z,72.27
2017-06-21T02:10:25.059Z,71.47
2017-06-21T02:11:05.973Z,71.25
2017-06-21T02:11:46.906Z,71.63
2017-06-21T02:12:27.801Z,71.25
2017-06-21T02:13:08.692Z,70.99
2017-06-21T02:13:49.593Z,70.61
2017-06-21T02:14:31.342Z,70.09
2017-06-21T02:15:12.296Z,69.93
2017-06-21T02:15:53.197Z,70.61
2017-06-21T02:16:34.080Z,70.03
2017-06-21T02:17:14.977Z,70
2017-06-21T02:17:55.875Z,70.23
2017-06-21T02:18:36.772Z,70.8
2017-06-21T02:19:17.694Z,71.19
2017-06-21T02:19:58.728Z,70.7
2017-06-21T02:20:39.655Z,70.7
2017-06-21T02:21:20.583Z,69.17
2017-06-21T02:22:01.518Z,69.65
2017-06-21T02:22:42.477Z,68.34
2017-06-21T02:23:23.397Z,68.98
2017-06-21T02:24:04.283Z,68.88
2017-06-21T02:24:45.186Z,69.84
2017-06-21T02:25:26.075Z,68.73
2017-06-21T02:26:06.955Z,69.74
2017-06-21T02:27:45.323Z,69.49
2017-06-21T02:28:26.272Z,67.96
2017-06-21T02:29:07.093Z,68.34
2017-06-21T02:29:48.035Z,69.01
2017-06-21T02:30:28.927Z,68.5
2017-06-21T02:31:09.859Z,69.36
2017-06-21T02:31:50.798Z,69.56
2017-06-21T02:32:31.680Z,68.73
2017-06-21T02:33:12.588Z,69.74
2017-06-21T02:33:53.510Z,69.46
2017-06-21T02:34:34.384Z,69.26
2017-06-21T02:35:15.320Z,70.23
2017-06-21T02:35:56.228Z,69.84
2017-06-21T02:36:37.221Z,68.82
2017-06-21T02:37:18.554Z,68.34
2017-06-21T02:37:59.466Z,68.24
2017-06-21T02:38:40.392Z,68.59
2017-06-21T02:40:28.648Z,68.82
2017-06-21T02:41:09.527Z,69.01
2017-06-21T02:41:50.425Z,68.24
2017-06-21T02:42:31.309Z,69.07
2017-06-21T02:43:12.193Z,69.65
2017-06-21T02:43:53.083Z,69.07
2017-06-21T02:44:33.958Z,70.09
2017-06-21T02:45:14.829Z,70.67
2017-06-21T02:45:55.706Z,72.17
2017-06-21T02:46:36.597Z,71.82
2017-06-21T02:47:17.482Z,71.72
2017-06-21T02:47:58.376Z,72.45
2017-06-21T02:48:39.268Z,72.36
2017-06-21T02:49:20.146Z,72.39
2017-06-21T02:50:01.031Z,73.13
2017-06-21T02:50:41.920Z,72.01
2017-06-21T02:51:22.809Z,72.45
2017-06-21T02:52:03.694Z,73.03
2017-06-21T02:52:44.565Z,72.45
2017-06-21T02:53:25.453Z,72.36
2017-06-21T02:54:06.341Z,72.74
2017-06-21T02:54:47.223Z,73.03
2017-06-21T02:55:28.106Z,73.22
2017-06-21T02:56:08.999Z,73.41
2017-06-21T02:56:49.892Z,73.8
2017-06-21T02:57:30.782Z,73.7
2017-06-21T02:58:11.670Z,71.86
2017-06-21T02:58:52.554Z,71.15
2017-06-21T02:59:33.443Z,71.63
2017-06-21T03:00:14.324Z,71.25
2017-06-21T03:00:55.209Z,71.25
2017-06-21T03:01:36.112Z,72.01
2017-06-21T03:02:17.000Z,72.01
2017-06-21T03:02:58.318Z,71.63
2017-06-21T03:03:39.210Z,71.82
2017-06-21T03:04:20.103Z,72.07
2017-06-21T03:05:01.020Z,72.49
2017-06-21T03:05:41.906Z,70.9
2017-06-21T03:06:22.793Z,69.93
2017-06-21T03:07:03.682Z,69.56
2017-06-21T03:07:44.582Z,71.05
2017-06-21T03:08:25.463Z,72.07
2017-06-21T03:09:06.356Z,71.72
2017-06-21T03:09:47.260Z,71.28
2017-06-21T03:10:28.228Z,71.28
2017-06-21T03:11:09.173Z,71.19
2017-06-21T03:11:50.215Z,71.63
2017-06-21T03:12:31.137Z,72.01
2017-06-21T03:13:12.026Z,72.3
2017-06-21T03:13:52.946Z,72.64
2017-06-21T03:14:33.874Z,73.22
2017-06-21T03:15:14.753Z,72.63
2017-06-21T03:15:55.672Z,71.63
2017-06-21T03:16:36.561Z,72.55
2017-06-21T03:18:24.792Z,73.41
2017-06-21T03:19:05.681Z,73.7
2017-06-21T03:19:46.579Z,74.18
2017-06-21T03:20:27.479Z,73.41
2017-06-21T03:21:08.370Z,73.99
2017-06-21T03:21:49.260Z,73.55
2017-06-21T03:22:30.150Z,72.74
2017-06-21T03:23:11.038Z,73.99
2017-06-21T03:23:51.929Z,73.7
2017-06-21T03:24:32.810Z,74.85
2017-06-21T03:25:13.697Z,75.01
2017-06-21T03:25:54.595Z,75.52
2017-06-21T03:26:35.488Z,74.41
2017-06-21T03:27:16.380Z,73.65
2017-06-21T03:27:57.268Z,73.93
2017-06-21T03:28:38.147Z,72.78
2017-06-21T03:29:19.040Z,72.39
2017-06-21T03:29:59.988Z,72.59
2017-06-21T03:30:41.692Z,72.78
2017-06-21T03:31:22.691Z,72.94
2017-06-21T03:32:03.586Z,73.51
2017-06-21T03:32:44.504Z,73.9
2017-06-21T03:33:25.391Z,74.37
2017-06-21T03:34:06.267Z,75.2
2017-06-21T03:34:47.163Z,74.66
2017-06-21T03:35:28.109Z,74.95
2017-06-21T03:36:09.016Z,74.37
2017-06-21T03:36:49.941Z,74.12
2017-06-21T03:37:30.944Z,74.47
2017-06-21T03:38:11.893Z,75.58
2017-06-21T03:38:52.891Z,75.96
2017-06-21T03:39:33.827Z,76.15
2017-06-21T03:40:14.807Z,76.64
2017-06-21T03:40:55.760Z,76.15
2017-06-21T03:41:36.683Z,75.87
2017-06-21T03:42:17.587Z,75.62
2017-06-21T03:42:58.492Z,74.76
2017-06-21T03:43:39.435Z,74.57
2017-06-21T03:44:20.366Z,74.51
2017-06-21T03:45:01.567Z,73.45
2017-06-21T03:45:42.473Z,74.47
2017-06-21T03:46:23.394Z,74.85
2017-06-21T03:47:04.257Z,75.77
2017-06-21T03:47:45.153Z,76.39
2017-06-21T03:48:26.203Z,75.14
2017-06-21T03:49:07.029Z,75.14
2017-06-21T03:49:47.898Z,74.85
2017-06-21T03:50:28.909Z,75.62
2017-06-21T03:51:09.830Z,74.22
2017-06-21T03:53:23.625Z,73.35
2017-06-21T03:54:04.557Z,74.6
2017-06-21T03:54:45.475Z,74.41
2017-06-21T03:55:26.402Z,74.76
2017-06-21T03:56:07.493Z,75.71
2017-06-21T03:56:49.148Z,75.96
2017-06-21T03:57:30.302Z,76.86
2017-06-21T03:58:11.197Z,76.48
2017-06-21T03:58:52.077Z,75.52
2017-06-21T04:01:56.435Z,76.73
2017-06-21T04:02:37.293Z,77.31
2017-06-21T04:06:01.737Z,75.18
2017-06-21T04:06:42.628Z,74.89
2017-06-21T04:07:23.511Z,74.98
2017-06-21T04:08:04.400Z,74.95
2017-06-21T04:08:45.283Z,75.08
2017-06-21T04:09:26.164Z,75.46
2017-06-21T04:10:07.047Z,75.62
2017-06-21T04:10:47.950Z,77.11
2017-06-21T04:11:28.851Z,77.97
2017-06-21T04:12:09.760Z,79.03
2017-06-21T04:12:51.412Z,78.93
2017-06-21T04:13:32.336Z,79.18
2017-06-21T04:14:13.259Z,79.95
2017-06-21T04:14:54.182Z,79.99
2017-06-21T04:15:35.098Z,80.04
2017-06-21T04:16:15.981Z,80.24
2017-06-21T04:16:56.880Z,81
2017-06-21T04:17:37.788Z,80.27
2017-06-21T04:18:18.739Z,78.93
2017-06-21T04:18:59.654Z,78.69
2017-06-21T04:19:40.605Z,77.73
2017-06-21T04:20:21.512Z,77.88
2017-06-21T04:21:02.381Z,78.55
2017-06-21T04:21:43.414Z,79.6
2017-06-21T04:22:24.283Z,80.56
2017-06-21T04:23:05.170Z,78.74
2017-06-21T04:23:46.060Z,77.86
2017-06-21T04:24:27.093Z,75.95
2017-06-21T04:25:08.008Z,75.65
2017-06-21T04:25:48.915Z,76
2017-06-21T04:26:29.821Z,75.95
2017-06-21T04:27:10.708Z,75.27
2017-06-21T04:27:53.554Z,75.27
2017-06-21T04:28:36.072Z,75.27
2017-06-21T04:29:19.604Z,75.56
2017-06-21T04:30:00.485Z,75.95
2017-06-21T04:30:43.118Z,75.75
2017-06-21T04:32:45.740Z,76.86
2017-06-21T04:33:26.617Z,77.59
2017-06-21T04:35:05.022Z,79.6
2017-06-21T04:35:45.951Z,79.32
2017-06-21T04:36:26.914Z,79.41
2017-06-21T04:37:07.809Z,79.41
2017-06-21T04:37:48.687Z,79.41
2017-06-21T04:39:21.989Z,80.76
2017-06-21T04:40:02.998Z,80.66
2017-06-21T04:40:43.943Z,80.37
2017-06-21T04:41:24.885Z,80.47
2017-06-21T04:42:05.783Z,80.66
2017-06-21T04:42:46.672Z,80.56
2017-06-21T04:43:27.547Z,80.85
2017-06-21T04:44:10.141Z,81.33
2017-06-21T04:44:53.050Z,81
2017-06-21T04:46:21.170Z,80.94
2017-06-21T04:47:02.154Z,81.04
2017-06-21T04:47:43.063Z,81.71
2017-06-21T04:48:23.966Z,81.38
2017-06-21T04:49:04.984Z,82
2017-06-21T04:49:46.408Z,81.77
2017-06-21T04:50:27.312Z,81.04
2017-06-21T04:51:09.964Z,81.04
2017-06-21T04:51:50.843Z,81.13
2017-06-21T04:52:35.968Z,81.13
2017-06-21T04:53:16.847Z,81.23
2017-06-21T04:53:57.723Z,81.62
2017-06-21T04:54:38.778Z,81.23
2017-06-21T04:55:19.695Z,81.38
2017-06-21T04:56:00.576Z,81.86
2017-06-21T04:56:41.454Z,82.73
2017-06-21T04:57:22.410Z,82.82
2017-06-21T04:58:06.812Z,82.53
2017-06-21T04:58:47.702Z,82.53
2017-06-21T04:59:28.603Z,82.06
2017-06-21T05:00:09.502Z,82.53
2017-06-21T05:00:50.389Z,82.43
2017-06-21T05:01:31.291Z,82.53
2017-06-21T05:02:12.166Z,82.34
2017-06-21T05:02:53.059Z,82.53
2017-06-21T05:03:33.934Z,82.29
2017-06-21T05:04:14.833Z,81.96
2017-06-21T05:04:55.741Z,81.71
2017-06-21T05:05:36.634Z,81.57
2017-06-21T05:06:17.532Z,82.06
2017-06-21T05:06:58.437Z,81.67
2017-06-21T05:07:39.340Z,82.06
2017-06-21T05:08:20.228Z,81.71
2017-06-21T05:09:01.122Z,81.71
2017-06-21T05:09:42.088Z,81.23
2017-06-21T05:10:23.000Z,81.9
2017-06-21T05:11:03.925Z,81
2017-06-21T05:11:44.813Z,81.2
2017-06-21T05:12:25.713Z,81.57
2017-06-21T05:13:06.604Z,81.52
2017-06-21T05:13:50.000Z,81.43
2017-06-21T05:14:30.896Z,81.33
2017-06-21T05:15:11.780Z,80.56
2017-06-21T05:15:52.695Z,80.37
2017-06-21T05:16:33.576Z,79.99
2017-06-21T05:17:14.484Z,80.47
2017-06-21T05:17:55.387Z,80.27
2017-06-21T05:18:36.286Z,80.37
2017-06-21T05:19:17.169Z,80.18
2017-06-21T05:19:58.070Z,80.37
2017-06-21T05:21:36.546Z,78.74
2017-06-21T05:22:17.460Z,77.69
2017-06-21T05:22:58.481Z,77.44
2017-06-21T05:23:39.364Z,78.02
2017-06-21T05:24:20.239Z,77.63
2017-06-21T05:25:01.163Z,76.67
2017-06-21T05:25:42.064Z,76.39
2017-06-21T05:26:22.954Z,75.71
2017-06-21T05:27:03.854Z,76.67
2017-06-21T05:27:44.758Z,77.11
2017-06-21T05:28:25.658Z,76.92
2017-06-21T05:29:06.562Z,77.02
2017-06-21T05:29:47.459Z,77.11
2017-06-21T05:30:28.374Z,77.59
2017-06-21T05:31:09.259Z,77.31
2017-06-21T05:31:50.172Z,77.11
2017-06-21T05:32:31.082Z,77.02
2017-06-21T05:33:11.959Z,76.39
2017-06-21T05:33:52.894Z,76.19
2017-06-21T05:34:33.774Z,75.52
2017-06-21T05:35:14.657Z,75.62
2017-06-21T05:38:39.649Z,73.9
2017-06-21T05:39:20.578Z,73.99
2017-06-21T05:40:59.815Z,73.45
2017-06-21T05:41:40.736Z,73.55
2017-06-21T05:42:21.634Z,74.12
2017-06-21T05:43:02.518Z,73.51
2017-06-21T05:43:43.428Z,73.13
2017-06-21T05:44:24.318Z,73.03
2017-06-21T05:45:05.204Z,73.03
2017-06-21T05:45:46.098Z,72.39
2017-06-21T05:46:26.990Z,71.63
2017-06-21T05:47:07.888Z,72.3
2017-06-21T05:47:48.778Z,74.35
2017-06-21T05:48:29.665Z,73.72
2017-06-21T05:49:10.572Z,69.97
2017-06-21T05:49:51.479Z,68.24
2017-06-21T05:51:30.392Z,67.86
2017-06-21T05:52:11.285Z,67.7
2017-06-21T05:52:52.227Z,67.67
2017-06-21T05:53:33.048Z,67.67
2017-06-21T05:54:13.936Z,67.29
2017-06-21T05:54:54.823Z,66.8
2017-06-21T05:55:35.694Z,66.26
2017-06-21T05:56:16.616Z,67.32
2017-06-21T05:56:57.598Z,66.36
2017-06-21T05:57:38.503Z,66.9
2017-06-21T05:58:19.377Z,68.12
2017-06-21T05:59:00.268Z,68.79
2017-06-21T05:59:41.143Z,68.15
2017-06-21T06:00:22.031Z,67.57
2017-06-21T06:02:39.423Z,65.27
2017-06-21T06:03:20.316Z,65.23
2017-06-21T06:04:01.243Z,65.36
2017-06-21T06:04:42.151Z,64.15
2017-06-21T06:05:23.044Z,63.28
2017-06-21T06:06:03.935Z,64.02
2017-06-21T06:06:44.818Z,63.73
2017-06-21T06:07:25.721Z,63.76
2017-06-21T06:08:06.601Z,62.93
2017-06-21T06:08:47.494Z,61.52
2017-06-21T06:09:28.392Z,59.47
2017-06-21T06:10:09.409Z,58.89
2017-06-21T06:10:50.304Z,57.54
2017-06-21T06:11:31.189Z,58.02
2017-06-21T06:12:12.076Z,56.38
2017-06-21T06:12:52.956Z,56.51
2017-06-21T06:13:33.861Z,56.29
2017-06-21T06:14:14.778Z,57.15
2017-06-21T06:14:55.676Z,58.76
2017-06-21T06:15:36.603Z,58.57
2017-06-21T06:18:17.803Z,56.37
2017-06-21T06:18:58.743Z,53.34
2017-06-21T06:19:39.723Z,52.4
2017-06-21T06:23:22.957Z,48.64
2017-06-21T06:24:03.871Z,50.16
2017-06-21T06:24:44.784Z,48.93
2017-06-21T06:25:25.679Z,49.77
2017-06-21T06:26:06.628Z,49.87
2017-06-21T06:26:47.662Z,49.32
2017-06-21T06:28:15.861Z,49.51
2017-06-21T06:30:09.545Z,47.91
2017-06-21T06:30:50.470Z,46.85
2017-06-21T06:31:31.352Z,47.41
2017-06-21T06:32:12.537Z,49.96
2017-06-21T06:32:53.429Z,51
2017-06-21T06:33:34.348Z,51.22
2017-06-21T06:34:15.226Z,49.44
2017-06-21T06:37:40.072Z,45.62
2017-06-21T06:38:22.071Z,47.99
2017-06-21T06:39:03.477Z,47.96
2017-06-21T06:41:03.694Z,51.65
2017-06-21T06:41:44.590Z,52.23
2017-06-21T06:42:25.486Z,51.22
2017-06-21T06:43:06.391Z,52.04
2017-06-21T06:43:47.297Z,53.74
2017-06-21T06:44:28.208Z,53.55
2017-06-21T06:45:09.104Z,51.05
2017-06-21T06:45:50.002Z,48.9
2017-06-21T06:46:30.914Z,46.73
2017-06-21T06:47:11.827Z,44.67
2017-06-21T06:50:41.579Z,43.78
2017-06-21T06:51:22.482Z,45.62
2017-06-21T06:52:03.408Z,47.24
2017-06-21T06:52:44.320Z,47.02
2017-06-21T06:53:28.128Z,48.06
2017-06-21T06:54:09.037Z,48.18
2017-06-21T06:57:33.743Z,44.56
2017-06-21T06:58:14.650Z,45.69
2017-06-21T06:58:56.164Z,47.96
2017-06-21T06:59:37.085Z,49.91
2017-06-21T07:00:18.071Z,50.13
2017-06-21T07:00:59.400Z,47.99
2017-06-21T07:01:42.640Z,47.22
2017-06-21T07:02:23.703Z,48.23
2017-06-21T07:03:04.576Z,48.35
2017-06-21T07:03:45.472Z,48.08
2017-06-21T07:06:47.950Z,45.31
2017-06-21T07:07:28.844Z,46.44
2017-06-21T07:11:55.279Z,45.35
2017-06-21T07:12:36.179Z,45.06
2017-06-21T07:13:17.126Z,43.95
2017-06-21T07:13:58.010Z,44.48
2017-06-21T07:14:39.069Z,43.9
2017-06-21T07:15:19.941Z,46.08
2017-06-21T07:16:00.852Z,45.45
2017-06-21T07:16:41.772Z,43.73
2017-06-21T07:17:22.671Z,43.71
2017-06-21T07:18:03.605Z,44.77
2017-06-21T07:18:44.492Z,43.24
2017-06-21T07:19:25.401Z,43.24
2017-06-21T07:20:06.346Z,42.93
2017-06-21T07:20:47.255Z,44.73
2017-06-21T07:21:28.138Z,45.31
2017-06-21T07:22:09.150Z,45.25
2017-06-21T07:22:51.646Z,43.71
2017-06-21T07:23:34.110Z,43.51
2017-06-21T07:25:30.395Z,42.37
2017-06-21T07:26:11.341Z,43.41
2017-06-21T07:26:52.441Z,44.73
2017-06-21T07:27:33.348Z,45.96
2017-06-21T07:28:14.272Z,45.04
2017-06-21T07:31:28.585Z,39.67
2017-06-21T07:32:09.472Z,40
2017-06-21T07:34:23.707Z,40.69
2017-06-21T07:35:04.599Z,41.99
2017-06-21T07:35:45.493Z,42.28
2017-06-21T07:36:26.494Z,42.28
2017-06-21T07:37:07.397Z,41.45
2017-06-21T07:39:24.722Z,40.99
2017-06-21T07:40:05.679Z,39.26
2017-06-21T07:40:49.319Z,39.74
2017-06-21T07:41:30.224Z,37.76
2017-06-21T07:42:11.118Z,35.24
2017-06-21T07:42:52.032Z,35.45
2017-06-21T07:43:33.066Z,36.3
2017-06-21T07:45:21.334Z,36.99
2017-06-21T07:46:02.257Z,37.77
2017-06-21T07:46:43.285Z,37.57
2017-06-21T07:47:24.216Z,39.29
2017-06-21T07:48:05.108Z,40.13
2017-06-21T07:48:46.025Z,42.02
2017-06-21T07:51:55.346Z,41.31
2017-06-21T07:52:36.250Z,41
2017-06-21T07:53:17.164Z,42.25
2017-06-21T07:53:58.148Z,43.64
2017-06-21T07:55:41.338Z,46.97
2017-06-21T07:56:23.769Z,47.45
2017-06-21T07:57:06.292Z,47.55
2017-06-21T07:57:47.192Z,46.33
2017-06-21T07:58:28.163Z,45.67
2017-06-21T07:59:09.097Z,44.57
2017-06-21T07:59:50.032Z,43.08
2017-06-21T08:00:32.948Z,44.51
2017-06-21T08:02:31.830Z,46.49
2017-06-21T08:03:12.740Z,45.67
2017-06-21T08:03:53.650Z,45.55
2017-06-21T08:04:34.551Z,45.45
2017-06-21T08:05:15.462Z,45.65
2017-06-21T08:05:56.384Z,44.8
2017-06-21T08:06:37.298Z,45.18
2017-06-21T08:07:18.211Z,44.07
2017-06-21T08:07:59.119Z,43.49
2017-06-21T08:08:40.086Z,42.55
2017-06-21T08:09:21.038Z,42.07
2017-06-21T08:11:20.901Z,41.54
2017-06-21T08:12:01.871Z,42.87
2017-06-21T08:12:42.780Z,44.27
2017-06-21T08:13:23.710Z,44.68
2017-06-21T08:14:04.785Z,44.2
2017-06-21T08:17:13.167Z,42.41
2017-06-21T08:17:54.070Z,42.04
2017-06-21T08:19:31.585Z,43.66
2017-06-21T08:20:12.501Z,43.47
2017-06-21T08:22:30.881Z,44.53
2017-06-21T08:23:11.805Z,45
2017-06-21T08:25:25.727Z,45.79
2017-06-21T08:26:06.773Z,44.75
2017-06-21T08:29:23.122Z,41.16
2017-06-21T08:30:04.076Z,39.45
2017-06-21T08:32:41.770Z,39.92
2017-06-21T08:33:22.859Z,39.36
2017-06-21T08:34:03.863Z,37.65
2017-06-21T08:34:44.822Z,36.6
2017-06-21T08:35:25.747Z,36.04
2017-06-21T08:42:59.306Z,40.26
2017-06-21T08:43:40.214Z,40.96
2017-06-21T08:44:21.117Z,39.37
2017-06-21T08:45:01.998Z,36.99
2017-06-21T08:45:42.917Z,34.2
2017-06-21T08:46:23.829Z,33.15
2017-06-21T08:47:04.759Z,32.97
2017-06-21T08:47:45.720Z,32.4
2017-06-21T08:48:26.641Z,32.23
2017-06-21T08:49:07.537Z,31.46
2017-06-21T08:49:48.458Z,31.79
2017-06-21T08:50:29.371Z,35.67
2017-06-21T08:51:10.279Z,37.59
2017-06-21T08:55:04.009Z,33.22
2017-06-21T08:55:44.920Z,32.26
2017-06-21T08:56:25.831Z,31.76
2017-06-21T08:57:06.746Z,32.65
2017-06-21T08:57:47.658Z,30.93
2017-06-21T08:58:28.581Z,29
2017-06-21T08:59:09.473Z,28.8
2017-06-21T08:59:50.393Z,29.21
2017-06-21T09:00:31.309Z,29.28
2017-06-21T09:01:12.227Z,32.75
2017-06-21T09:01:53.136Z,36.08
2017-06-21T09:02:34.059Z,35.94
2017-06-21T09:03:14.980Z,33.49
2017-06-21T09:03:55.927Z,31.71
2017-06-21T09:04:36.842Z,29.5
2017-06-21T09:05:17.744Z,29.44
2017-06-21T09:05:58.659Z,27.7
2017-06-21T09:06:39.592Z,28.69
2017-06-21T09:07:20.509Z,30.76
2017-06-21T09:08:01.419Z,33.51
2017-06-21T09:08:42.331Z,35.02
2017-06-21T09:09:23.262Z,36.28
2017-06-21T09:10:04.165Z,36.47
2017-06-21T09:10:45.073Z,34.38
2017-06-21T09:11:25.981Z,32.87
2017-06-21T09:12:06.902Z,32.18
2017-06-21T09:12:47.836Z,33.33
2017-06-21T09:13:28.733Z,33.62
2017-06-21T09:14:09.656Z,34.2
2017-06-21T09:14:50.572Z,35.7
2017-06-21T09:15:31.492Z,36.4
2017-06-21T09:16:12.411Z,37.23
2017-06-21T09:16:53.349Z,37.46
2017-06-21T09:17:34.262Z,35.17
2017-06-21T09:18:15.176Z,34.67
2017-06-21T09:18:56.081Z,34.27
2017-06-21T09:19:36.988Z,35.58
2017-06-21T09:20:17.912Z,38.06
2017-06-21T09:20:58.832Z,39.34
2017-06-21T09:21:39.743Z,39.04
2017-06-21T09:22:20.671Z,37.67
2017-06-21T09:23:01.577Z,35.03
2017-06-21T09:23:42.486Z,33.23
2017-06-21T09:24:23.400Z,31.58
2017-06-21T09:25:04.291Z,34.35
2017-06-21T09:25:45.218Z,31.4
2017-06-21T09:26:26.137Z,30.46
2017-06-21T09:27:07.058Z,28.63
2017-06-21T09:27:47.967Z,28.36
2017-06-21T09:28:28.910Z,27.5
2017-06-21T09:29:09.827Z,27.69
2017-06-21T09:29:50.747Z,27.22
2017-06-21T09:30:31.662Z,27.64
2017-06-21T09:31:12.575Z,26.2
2017-06-21T09:31:53.485Z,24.75
2017-06-21T09:32:34.402Z,23.77
2017-06-21T09:33:15.307Z,23.77
2017-06-21T09:33:56.229Z,24.79
2017-06-21T09:34:37.132Z,30.79
2017-06-21T09:35:18.050Z,32.31
2017-06-21T09:35:58.965Z,34.11
2017-06-21T09:36:39.887Z,34.78
2017-06-21T09:37:20.785Z,33.54
2017-06-21T09:38:01.703Z,33.73
2017-06-21T09:38:42.609Z,33.15
2017-06-21T09:39:23.519Z,32.68
2017-06-21T09:40:04.420Z,33.33
2017-06-21T09:40:45.345Z,34.19
2017-06-21T09:41:26.264Z,34.92
2017-06-21T09:42:07.273Z,35.23
2017-06-21T09:42:48.165Z,35.23
2017-06-21T09:43:29.075Z,34.41
2017-06-21T09:44:09.982Z,32.96
2017-06-21T09:44:50.902Z,32.5
2017-06-21T09:45:31.853Z,33.15
2017-06-21T09:46:12.766Z,32.6
2017-06-21T09:46:53.776Z,33.44
2017-06-21T09:47:34.678Z,34.47
2017-06-21T09:48:15.594Z,35.33
2017-06-21T09:48:56.506Z,35.25
2017-06-21T09:49:37.423Z,33.49
2017-06-21T09:50:18.346Z,30.8
2017-06-21T09:50:59.262Z,29.4
2017-06-21T09:51:40.175Z,27.65
2017-06-21T09:52:21.093Z,30.19
2017-06-21T09:53:02.014Z,32.28
2017-06-21T09:53:42.916Z,32.64
2017-06-21T09:54:23.823Z,33.22
2017-06-21T09:55:04.734Z,32.18
2017-06-21T09:55:45.651Z,33.22
2017-06-21T09:56:26.571Z,33.04
2017-06-21T09:57:07.478Z,33.41
2017-06-21T09:57:48.405Z,34.45
2017-06-21T09:58:29.312Z,34.41
2017-06-21T09:59:10.225Z,30.62
2017-06-21T09:59:51.142Z,28.05
2017-06-21T10:00:32.181Z,25.96
2017-06-21T10:01:13.104Z,23.85
2017-06-21T10:01:54.013Z,21.33
2017-06-21T10:02:34.933Z,20.74
2017-06-21T10:03:15.843Z,20.45
2017-06-21T10:03:57.090Z,20.66
2017-06-21T10:05:25.244Z,23.69
2017-06-21T10:06:06.167Z,23.99
2017-06-21T10:08:28.003Z,30.65
2017-06-21T10:09:08.939Z,30.35
2017-06-21T10:15:37.930Z,31.24
2017-06-21T10:16:18.856Z,29.44
2017-06-21T10:16:59.925Z,29.19
2017-06-21T10:17:40.838Z,30.71
2017-06-21T10:18:21.750Z,29.38
2017-06-21T10:19:02.679Z,29.47
2017-06-21T10:19:43.580Z,29.17
2017-06-21T10:20:24.490Z,28.22
2017-06-21T10:21:05.405Z,28.59
2017-06-21T10:21:46.326Z,29
2017-06-21T10:22:27.244Z,27.96
2017-06-21T10:23:08.157Z,29.19
2017-06-21T10:23:49.075Z,31.28
2017-06-21T10:24:30.000Z,32.28
2017-06-21T10:25:10.957Z,31.23
2017-06-21T10:25:51.876Z,31.41
2017-06-21T10:26:32.808Z,32.84
2017-06-21T10:27:13.738Z,32.94
2017-06-21T10:27:54.639Z,33.14
2017-06-21T10:28:35.547Z,35
2017-06-21T10:29:16.468Z,34.94
2017-06-21T10:29:58.268Z,33.18